sensor_id;sensor_type;location;lat;lon;timestamp;P1;durP1;ratioP1;P2;durP2;ratioP2
67516;SDS011;68821;59.134;37.894;2023-05-07T00:01:05;59.83;;;19.92;;
67516;SDS011;68821;59.134;37.894;2023-05-07T00:03:32;36.53;;;12.32;;
67516;SDS011;68821;59.134;37.894;2023-05-07T00:05:58;24.42;;;8.35;;
67516;SDS011;68821;59.134;37.894;2023-05-07T00:08:24;43.22;;;13.43;;
67516;SDS011;68821;59.134;37.894;2023-05-07T00:10:50;40.60;;;12.45;;
67516;SDS011;68821;59.134;37.894;2023-05-07T00:13:16;20.63;;;6.47;;
67516;SDS011;68821;59.134;37.894;2023-05-07T00:15:42;32.72;;;10.43;;
67516;SDS011;68821;59.134;37.894;2023-05-07T00:18:09;20.90;;;8.90;;
67516;SDS011;68821;59.134;37.894;2023-05-07T00:20:35;36.85;;;13.77;;
67516;SDS011;68821;59.134;37.894;2023-05-07T00:23:01;47.67;;;18.70;;
67516;SDS011;68821;59.134;37.894;2023-05-07T00:25:27;63.05;;;24.42;;
67516;SDS011;68821;59.134;37.894;2023-05-07T00:27:53;143.75;;;45.83;;
67516;SDS011;68821;59.134;37.894;2023-05-07T00:30:19;123.07;;;42.75;;
67516;SDS011;68821;59.134;37.894;2023-05-07T00:32:45;100.43;;;34.30;;
67516;SDS011;68821;59.134;37.894;2023-05-07T00:35:14;84.65;;;29.63;;
67516;SDS011;68821;59.134;37.894;2023-05-07T00:37:40;111.15;;;38.75;;
67516;SDS011;68821;59.134;37.894;2023-05-07T00:40:06;108.22;;;33.55;;
67516;SDS011;68821;59.134;37.894;2023-05-07T00:42:33;111.10;;;33.17;;
67516;SDS011;68821;59.134;37.894;2023-05-07T00:44:59;96.40;;;30.65;;
67516;SDS011;68821;59.134;37.894;2023-05-07T00:47:26;72.82;;;23.55;;
67516;SDS011;68821;59.134;37.894;2023-05-07T00:49:52;47.00;;;14.85;;
67516;SDS011;68821;59.134;37.894;2023-05-07T00:52:18;31.65;;;9.82;;
67516;SDS011;68821;59.134;37.894;2023-05-07T00:54:47;22.95;;;7.65;;
67516;SDS011;68821;59.134;37.894;2023-05-07T00:57:13;29.67;;;10.73;;
67516;SDS011;68821;59.134;37.894;2023-05-07T00:59:40;39.15;;;13.25;;
67516;SDS011;68821;59.134;37.894;2023-05-07T01:05:38;39.38;;;15.43;;
67516;SDS011;68821;59.134;37.894;2023-05-07T01:08:05;35.75;;;11.98;;
67516;SDS011;68821;59.134;37.894;2023-05-07T01:10:32;86.75;;;23.70;;
67516;SDS011;68821;59.134;37.894;2023-05-07T01:12:58;62.50;;;23.27;;
67516;SDS011;68821;59.134;37.894;2023-05-07T01:17:51;48.90;;;19.17;;
67516;SDS011;68821;59.134;37.894;2023-05-07T01:20:18;46.85;;;15.68;;
67516;SDS011;68821;59.134;37.894;2023-05-07T01:22:45;60.53;;;18.70;;
67516;SDS011;68821;59.134;37.894;2023-05-07T01:25:11;47.95;;;16.15;;
67516;SDS011;68821;59.134;37.894;2023-05-07T01:27:37;25.80;;;9.45;;
67516;SDS011;68821;59.134;37.894;2023-05-07T01:30:04;84.10;;;23.40;;
67516;SDS011;68821;59.134;37.894;2023-05-07T01:32:38;179.30;;;50.40;;
67516;SDS011;68821;59.134;37.894;2023-05-07T01:35:24;93.88;;;28.63;;
67516;SDS011;68821;59.134;37.894;2023-05-07T01:37:54;33.22;;;12.88;;
67516;SDS011;68821;59.134;37.894;2023-05-07T01:40:20;27.25;;;10.25;;
67516;SDS011;68821;59.134;37.894;2023-05-07T01:42:47;28.60;;;9.73;;
67516;SDS011;68821;59.134;37.894;2023-05-07T01:45:14;33.03;;;11.40;;
67516;SDS011;68821;59.134;37.894;2023-05-07T01:47:40;53.33;;;14.45;;
67516;SDS011;68821;59.134;37.894;2023-05-07T01:50:07;45.33;;;12.63;;
67516;SDS011;68821;59.134;37.894;2023-05-07T01:55:05;62.97;;;21.30;;
67516;SDS011;68821;59.134;37.894;2023-05-07T01:57:32;102.20;;;32.10;;
67516;SDS011;68821;59.134;37.894;2023-05-07T01:59:58;146.00;;;41.08;;
67516;SDS011;68821;59.134;37.894;2023-05-07T02:02:24;105.78;;;36.60;;
67516;SDS011;68821;59.134;37.894;2023-05-07T02:04:50;50.33;;;18.30;;
67516;SDS011;68821;59.134;37.894;2023-05-07T02:07:16;86.80;;;27.85;;
67516;SDS011;68821;59.134;37.894;2023-05-07T02:09:42;65.93;;;22.35;;
67516;SDS011;68821;59.134;37.894;2023-05-07T02:12:08;27.95;;;10.95;;
67516;SDS011;68821;59.134;37.894;2023-05-07T02:14:34;32.90;;;12.15;;
67516;SDS011;68821;59.134;37.894;2023-05-07T02:17:01;47.83;;;17.27;;
67516;SDS011;68821;59.134;37.894;2023-05-07T02:19:27;32.83;;;11.27;;
67516;SDS011;68821;59.134;37.894;2023-05-07T02:21:53;33.38;;;12.65;;
67516;SDS011;68821;59.134;37.894;2023-05-07T02:24:19;34.90;;;12.73;;
67516;SDS011;68821;59.134;37.894;2023-05-07T02:26:45;98.53;;;31.15;;
67516;SDS011;68821;59.134;37.894;2023-05-07T02:29:11;48.22;;;18.02;;
67516;SDS011;68821;59.134;37.894;2023-05-07T02:31:38;35.08;;;12.85;;
67516;SDS011;68821;59.134;37.894;2023-05-07T02:34:04;30.67;;;10.63;;
67516;SDS011;68821;59.134;37.894;2023-05-07T02:36:30;15.00;;;5.88;;
67516;SDS011;68821;59.134;37.894;2023-05-07T02:38:56;36.83;;;14.00;;
67516;SDS011;68821;59.134;37.894;2023-05-07T02:41:22;16.00;;;6.30;;
67516;SDS011;68821;59.134;37.894;2023-05-07T02:43:48;23.00;;;7.05;;
67516;SDS011;68821;59.134;37.894;2023-05-07T02:46:14;10.10;;;3.17;;
67516;SDS011;68821;59.134;37.894;2023-05-07T02:48:41;44.65;;;11.70;;
67516;SDS011;68821;59.134;37.894;2023-05-07T02:51:07;59.83;;;17.38;;
67516;SDS011;68821;59.134;37.894;2023-05-07T02:53:33;46.83;;;12.52;;
67516;SDS011;68821;59.134;37.894;2023-05-07T02:56:00;22.38;;;7.15;;
67516;SDS011;68821;59.134;37.894;2023-05-07T02:58:26;18.90;;;5.40;;
67516;SDS011;68821;59.134;37.894;2023-05-07T03:00:53;22.88;;;6.82;;
67516;SDS011;68821;59.134;37.894;2023-05-07T03:03:20;15.38;;;5.85;;
67516;SDS011;68821;59.134;37.894;2023-05-07T03:05:46;33.70;;;9.10;;
67516;SDS011;68821;59.134;37.894;2023-05-07T03:08:12;56.95;;;17.27;;
67516;SDS011;68821;59.134;37.894;2023-05-07T03:10:38;84.88;;;24.02;;
67516;SDS011;68821;59.134;37.894;2023-05-07T03:13:05;87.82;;;23.77;;
67516;SDS011;68821;59.134;37.894;2023-05-07T03:15:31;63.55;;;17.83;;
67516;SDS011;68821;59.134;37.894;2023-05-07T03:17:57;54.45;;;16.45;;
67516;SDS011;68821;59.134;37.894;2023-05-07T03:20:23;45.78;;;12.00;;
67516;SDS011;68821;59.134;37.894;2023-05-07T03:22:49;41.92;;;10.10;;
67516;SDS011;68821;59.134;37.894;2023-05-07T03:25:15;43.78;;;11.25;;
67516;SDS011;68821;59.134;37.894;2023-05-07T03:27:41;48.60;;;12.73;;
67516;SDS011;68821;59.134;37.894;2023-05-07T03:30:08;39.25;;;10.02;;
67516;SDS011;68821;59.134;37.894;2023-05-07T03:32:35;35.65;;;8.63;;
67516;SDS011;68821;59.134;37.894;2023-05-07T03:35:01;29.38;;;7.43;;
67516;SDS011;68821;59.134;37.894;2023-05-07T03:37:28;19.38;;;5.95;;
67516;SDS011;68821;59.134;37.894;2023-05-07T03:39:54;19.80;;;6.25;;
67516;SDS011;68821;59.134;37.894;2023-05-07T03:42:20;15.57;;;5.07;;
67516;SDS011;68821;59.134;37.894;2023-05-07T03:44:49;28.05;;;8.43;;
67516;SDS011;68821;59.134;37.894;2023-05-07T03:47:15;18.77;;;6.53;;
67516;SDS011;68821;59.134;37.894;2023-05-07T03:49:41;31.20;;;9.70;;
67516;SDS011;68821;59.134;37.894;2023-05-07T03:52:07;37.45;;;11.55;;
67516;SDS011;68821;59.134;37.894;2023-05-07T03:54:33;33.47;;;9.63;;
67516;SDS011;68821;59.134;37.894;2023-05-07T03:57:00;40.60;;;10.07;;
67516;SDS011;68821;59.134;37.894;2023-05-07T03:59:26;36.50;;;10.55;;
67516;SDS011;68821;59.134;37.894;2023-05-07T04:01:52;45.00;;;11.93;;
67516;SDS011;68821;59.134;37.894;2023-05-07T04:04:18;50.80;;;12.38;;
67516;SDS011;68821;59.134;37.894;2023-05-07T04:06:44;54.50;;;16.00;;
67516;SDS011;68821;59.134;37.894;2023-05-07T04:09:10;67.60;;;18.70;;
67516;SDS011;68821;59.134;37.894;2023-05-07T04:11:36;59.05;;;16.30;;
67516;SDS011;68821;59.134;37.894;2023-05-07T04:14:02;62.58;;;13.90;;
67516;SDS011;68821;59.134;37.894;2023-05-07T04:16:29;50.17;;;13.23;;
67516;SDS011;68821;59.134;37.894;2023-05-07T04:18:55;55.75;;;14.75;;
67516;SDS011;68821;59.134;37.894;2023-05-07T04:21:21;73.20;;;18.23;;
67516;SDS011;68821;59.134;37.894;2023-05-07T04:23:47;67.03;;;16.58;;
67516;SDS011;68821;59.134;37.894;2023-05-07T04:26:14;64.47;;;17.85;;
67516;SDS011;68821;59.134;37.894;2023-05-07T04:28:40;68.38;;;18.30;;
67516;SDS011;68821;59.134;37.894;2023-05-07T04:31:07;49.60;;;15.05;;
67516;SDS011;68821;59.134;37.894;2023-05-07T04:33:33;46.67;;;14.02;;
67516;SDS011;68821;59.134;37.894;2023-05-07T04:36:03;57.10;;;15.45;;
67516;SDS011;68821;59.134;37.894;2023-05-07T04:38:30;43.67;;;12.07;;
67516;SDS011;68821;59.134;37.894;2023-05-07T04:40:57;36.00;;;12.80;;
67516;SDS011;68821;59.134;37.894;2023-05-07T04:43:28;26.23;;;9.55;;
67516;SDS011;68821;59.134;37.894;2023-05-07T04:45:54;24.75;;;9.15;;
67516;SDS011;68821;59.134;37.894;2023-05-07T04:48:20;53.00;;;13.50;;
67516;SDS011;68821;59.134;37.894;2023-05-07T04:50:49;32.90;;;10.73;;
67516;SDS011;68821;59.134;37.894;2023-05-07T04:53:16;29.02;;;11.07;;
67516;SDS011;68821;59.134;37.894;2023-05-07T04:55:43;20.55;;;7.40;;
67516;SDS011;68821;59.134;37.894;2023-05-07T04:58:13;30.35;;;10.80;;
67516;SDS011;68821;59.134;37.894;2023-05-07T05:00:39;29.08;;;12.40;;
67516;SDS011;68821;59.134;37.894;2023-05-07T05:03:08;14.93;;;6.50;;
67516;SDS011;68821;59.134;37.894;2023-05-07T05:05:34;21.00;;;7.20;;
67516;SDS011;68821;59.134;37.894;2023-05-07T05:08:00;88.60;;;24.13;;
67516;SDS011;68821;59.134;37.894;2023-05-07T05:10:27;86.80;;;24.88;;
67516;SDS011;68821;59.134;37.894;2023-05-07T05:12:53;39.72;;;11.55;;
67516;SDS011;68821;59.134;37.894;2023-05-07T05:15:19;21.77;;;6.15;;
67516;SDS011;68821;59.134;37.894;2023-05-07T05:17:45;12.18;;;4.25;;
67516;SDS011;68821;59.134;37.894;2023-05-07T05:20:11;7.63;;;2.38;;
67516;SDS011;68821;59.134;37.894;2023-05-07T05:22:38;13.50;;;4.75;;
67516;SDS011;68821;59.134;37.894;2023-05-07T05:25:04;8.57;;;2.90;;
67516;SDS011;68821;59.134;37.894;2023-05-07T05:27:30;11.85;;;3.22;;
67516;SDS011;68821;59.134;37.894;2023-05-07T05:29:56;10.07;;;3.15;;
67516;SDS011;68821;59.134;37.894;2023-05-07T05:32:22;16.63;;;4.43;;
67516;SDS011;68821;59.134;37.894;2023-05-07T05:34:49;12.77;;;3.10;;
67516;SDS011;68821;59.134;37.894;2023-05-07T05:37:15;12.70;;;3.90;;
67516;SDS011;68821;59.134;37.894;2023-05-07T05:39:41;7.68;;;2.33;;
67516;SDS011;68821;59.134;37.894;2023-05-07T05:42:08;4.70;;;1.40;;
67516;SDS011;68821;59.134;37.894;2023-05-07T05:44:34;7.18;;;2.22;;
67516;SDS011;68821;59.134;37.894;2023-05-07T05:47:00;20.70;;;5.38;;
67516;SDS011;68821;59.134;37.894;2023-05-07T05:49:26;16.65;;;6.15;;
67516;SDS011;68821;59.134;37.894;2023-05-07T05:51:52;13.35;;;4.05;;
67516;SDS011;68821;59.134;37.894;2023-05-07T05:54:18;12.98;;;3.33;;
67516;SDS011;68821;59.134;37.894;2023-05-07T05:56:45;6.70;;;2.50;;
67516;SDS011;68821;59.134;37.894;2023-05-07T05:59:11;8.40;;;1.90;;
67516;SDS011;68821;59.134;37.894;2023-05-07T06:01:37;9.55;;;3.65;;
67516;SDS011;68821;59.134;37.894;2023-05-07T06:04:04;42.78;;;11.00;;
67516;SDS011;68821;59.134;37.894;2023-05-07T06:06:30;6.63;;;2.85;;
67516;SDS011;68821;59.134;37.894;2023-05-07T06:08:57;13.63;;;1.83;;
67516;SDS011;68821;59.134;37.894;2023-05-07T06:11:23;4.28;;;1.58;;
67516;SDS011;68821;59.134;37.894;2023-05-07T06:13:49;2.58;;;1.02;;
67516;SDS011;68821;59.134;37.894;2023-05-07T06:16:15;10.63;;;2.75;;
67516;SDS011;68821;59.134;37.894;2023-05-07T06:18:41;7.38;;;2.55;;
67516;SDS011;68821;59.134;37.894;2023-05-07T06:21:07;15.07;;;3.75;;
67516;SDS011;68821;59.134;37.894;2023-05-07T06:23:33;19.92;;;4.72;;
67516;SDS011;68821;59.134;37.894;2023-05-07T06:26:00;28.48;;;6.07;;
67516;SDS011;68821;59.134;37.894;2023-05-07T06:28:26;22.55;;;5.38;;
67516;SDS011;68821;59.134;37.894;2023-05-07T06:30:53;11.15;;;3.40;;
67516;SDS011;68821;59.134;37.894;2023-05-07T06:33:19;15.40;;;4.97;;
67516;SDS011;68821;59.134;37.894;2023-05-07T06:35:45;15.10;;;4.57;;
67516;SDS011;68821;59.134;37.894;2023-05-07T06:38:11;17.35;;;4.13;;
67516;SDS011;68821;59.134;37.894;2023-05-07T06:40:37;9.48;;;2.42;;
67516;SDS011;68821;59.134;37.894;2023-05-07T06:43:03;15.40;;;4.50;;
67516;SDS011;68821;59.134;37.894;2023-05-07T06:45:29;23.23;;;8.23;;
67516;SDS011;68821;59.134;37.894;2023-05-07T06:47:55;26.67;;;7.40;;
67516;SDS011;68821;59.134;37.894;2023-05-07T06:50:22;15.25;;;5.10;;
67516;SDS011;68821;59.134;37.894;2023-05-07T06:52:48;7.35;;;2.22;;
67516;SDS011;68821;59.134;37.894;2023-05-07T06:55:14;38.30;;;14.10;;
67516;SDS011;68821;59.134;37.894;2023-05-07T06:57:40;11.43;;;3.58;;
67516;SDS011;68821;59.134;37.894;2023-05-07T07:00:06;5.90;;;1.90;;
67516;SDS011;68821;59.134;37.894;2023-05-07T07:02:36;9.93;;;2.35;;
67516;SDS011;68821;59.134;37.894;2023-05-07T07:05:02;13.27;;;2.65;;
67516;SDS011;68821;59.134;37.894;2023-05-07T07:07:28;6.25;;;1.92;;
67516;SDS011;68821;59.134;37.894;2023-05-07T07:09:54;8.82;;;3.25;;
67516;SDS011;68821;59.134;37.894;2023-05-07T07:12:21;13.15;;;4.32;;
67516;SDS011;68821;59.134;37.894;2023-05-07T07:14:48;14.45;;;4.82;;
67516;SDS011;68821;59.134;37.894;2023-05-07T07:17:14;27.95;;;7.15;;
67516;SDS011;68821;59.134;37.894;2023-05-07T07:19:40;12.10;;;2.78;;
67516;SDS011;68821;59.134;37.894;2023-05-07T07:22:06;22.60;;;5.10;;
67516;SDS011;68821;59.134;37.894;2023-05-07T07:24:32;23.75;;;6.32;;
67516;SDS011;68821;59.134;37.894;2023-05-07T07:27:03;13.05;;;3.83;;
67516;SDS011;68821;59.134;37.894;2023-05-07T07:29:30;17.00;;;4.65;;
67516;SDS011;68821;59.134;37.894;2023-05-07T07:31:56;9.15;;;1.95;;
67516;SDS011;68821;59.134;37.894;2023-05-07T07:34:22;3.53;;;1.20;;
67516;SDS011;68821;59.134;37.894;2023-05-07T07:36:48;3.72;;;1.10;;
67516;SDS011;68821;59.134;37.894;2023-05-07T07:39:15;3.10;;;0.93;;
67516;SDS011;68821;59.134;37.894;2023-05-07T07:41:41;2.97;;;1.20;;
67516;SDS011;68821;59.134;37.894;2023-05-07T07:44:07;4.03;;;1.02;;
67516;SDS011;68821;59.134;37.894;2023-05-07T07:46:34;6.28;;;2.00;;
67516;SDS011;68821;59.134;37.894;2023-05-07T07:49:00;8.38;;;2.17;;
67516;SDS011;68821;59.134;37.894;2023-05-07T07:51:26;13.15;;;4.00;;
67516;SDS011;68821;59.134;37.894;2023-05-07T07:53:52;5.05;;;1.20;;
67516;SDS011;68821;59.134;37.894;2023-05-07T07:56:18;10.65;;;3.42;;
67516;SDS011;68821;59.134;37.894;2023-05-07T07:58:44;41.42;;;13.50;;
67516;SDS011;68821;59.134;37.894;2023-05-07T08:01:10;24.80;;;6.10;;
67516;SDS011;68821;59.134;37.894;2023-05-07T08:03:38;7.55;;;1.75;;
67516;SDS011;68821;59.134;37.894;2023-05-07T08:06:04;17.17;;;4.07;;
67516;SDS011;68821;59.134;37.894;2023-05-07T08:08:30;23.25;;;5.32;;
67516;SDS011;68821;59.134;37.894;2023-05-07T08:10:56;28.25;;;7.72;;
67516;SDS011;68821;59.134;37.894;2023-05-07T08:13:22;9.98;;;2.95;;
67516;SDS011;68821;59.134;37.894;2023-05-07T08:15:49;28.70;;;12.02;;
67516;SDS011;68821;59.134;37.894;2023-05-07T08:18:15;17.55;;;6.53;;
67516;SDS011;68821;59.134;37.894;2023-05-07T08:20:41;14.43;;;4.57;;
67516;SDS011;68821;59.134;37.894;2023-05-07T08:23:07;12.93;;;3.25;;
67516;SDS011;68821;59.134;37.894;2023-05-07T08:25:34;9.68;;;1.67;;
67516;SDS011;68821;59.134;37.894;2023-05-07T08:28:00;12.90;;;3.80;;
67516;SDS011;68821;59.134;37.894;2023-05-07T08:30:27;10.93;;;2.97;;
67516;SDS011;68821;59.134;37.894;2023-05-07T08:32:53;6.35;;;1.58;;
67516;SDS011;68821;59.134;37.894;2023-05-07T08:35:19;5.30;;;1.65;;
67516;SDS011;68821;59.134;37.894;2023-05-07T08:37:45;4.72;;;1.58;;
67516;SDS011;68821;59.134;37.894;2023-05-07T08:40:11;9.90;;;2.67;;
67516;SDS011;68821;59.134;37.894;2023-05-07T08:42:37;13.75;;;4.05;;
67516;SDS011;68821;59.134;37.894;2023-05-07T08:45:08;19.38;;;7.72;;
67516;SDS011;68821;59.134;37.894;2023-05-07T08:47:40;23.58;;;7.25;;
67516;SDS011;68821;59.134;37.894;2023-05-07T08:50:12;11.20;;;3.95;;
67516;SDS011;68821;59.134;37.894;2023-05-07T08:52:39;10.57;;;3.33;;
67516;SDS011;68821;59.134;37.894;2023-05-07T08:55:06;4.30;;;1.58;;
67516;SDS011;68821;59.134;37.894;2023-05-07T08:57:33;1.73;;;0.82;;
67516;SDS011;68821;59.134;37.894;2023-05-07T09:00:00;6.82;;;1.50;;
67516;SDS011;68821;59.134;37.894;2023-05-07T09:02:26;4.10;;;0.93;;
67516;SDS011;68821;59.134;37.894;2023-05-07T09:04:52;3.28;;;0.75;;
67516;SDS011;68821;59.134;37.894;2023-05-07T09:07:19;4.20;;;1.40;;
67516;SDS011;68821;59.134;37.894;2023-05-07T09:09:46;8.30;;;2.38;;
67516;SDS011;68821;59.134;37.894;2023-05-07T09:12:12;15.27;;;4.28;;
67516;SDS011;68821;59.134;37.894;2023-05-07T09:14:38;18.50;;;6.13;;
67516;SDS011;68821;59.134;37.894;2023-05-07T09:17:05;13.75;;;4.68;;
67516;SDS011;68821;59.134;37.894;2023-05-07T09:19:31;8.00;;;2.22;;
67516;SDS011;68821;59.134;37.894;2023-05-07T09:21:57;5.22;;;1.40;;
67516;SDS011;68821;59.134;37.894;2023-05-07T09:24:25;5.53;;;1.60;;
67516;SDS011;68821;59.134;37.894;2023-05-07T09:26:51;6.35;;;1.10;;
67516;SDS011;68821;59.134;37.894;2023-05-07T09:29:17;3.10;;;1.13;;
67516;SDS011;68821;59.134;37.894;2023-05-07T09:31:44;31.90;;;11.02;;
67516;SDS011;68821;59.134;37.894;2023-05-07T09:34:10;9.73;;;4.45;;
67516;SDS011;68821;59.134;37.894;2023-05-07T09:36:36;10.65;;;3.45;;
67516;SDS011;68821;59.134;37.894;2023-05-07T09:39:02;19.95;;;5.60;;
67516;SDS011;68821;59.134;37.894;2023-05-07T09:41:30;10.48;;;3.28;;
67516;SDS011;68821;59.134;37.894;2023-05-07T09:44:08;25.63;;;8.48;;
67516;SDS011;68821;59.134;37.894;2023-05-07T09:46:35;41.33;;;11.68;;
67516;SDS011;68821;59.134;37.894;2023-05-07T09:49:06;32.63;;;10.50;;
67516;SDS011;68821;59.134;37.894;2023-05-07T09:51:40;36.70;;;12.35;;
67516;SDS011;68821;59.134;37.894;2023-05-07T09:54:11;18.58;;;5.85;;
67516;SDS011;68821;59.134;37.894;2023-05-07T09:56:38;12.40;;;4.10;;
67516;SDS011;68821;59.134;37.894;2023-05-07T09:59:07;15.98;;;5.38;;
67516;SDS011;68821;59.134;37.894;2023-05-07T10:01:36;10.18;;;2.83;;
67516;SDS011;68821;59.134;37.894;2023-05-07T10:04:02;9.05;;;2.90;;
67516;SDS011;68821;59.134;37.894;2023-05-07T10:06:37;11.23;;;3.60;;
67516;SDS011;68821;59.134;37.894;2023-05-07T10:09:04;13.50;;;3.88;;
67516;SDS011;68821;59.134;37.894;2023-05-07T10:11:34;13.15;;;4.18;;
67516;SDS011;68821;59.134;37.894;2023-05-07T10:14:02;5.68;;;2.03;;
67516;SDS011;68821;59.134;37.894;2023-05-07T10:16:30;5.13;;;1.20;;
67516;SDS011;68821;59.134;37.894;2023-05-07T10:18:58;11.43;;;3.63;;
67516;SDS011;68821;59.134;37.894;2023-05-07T10:21:25;18.88;;;6.47;;
67516;SDS011;68821;59.134;37.894;2023-05-07T10:26:57;8.10;;;1.98;;
67516;SDS011;68821;59.134;37.894;2023-05-07T10:34:50;8.68;;;3.08;;
67516;SDS011;68821;59.134;37.894;2023-05-07T10:37:20;29.52;;;8.73;;
67516;SDS011;68821;59.134;37.894;2023-05-07T10:39:48;16.73;;;5.85;;
67516;SDS011;68821;59.134;37.894;2023-05-07T10:42:14;23.85;;;6.55;;
67516;SDS011;68821;59.134;37.894;2023-05-07T10:44:41;7.07;;;1.70;;
67516;SDS011;68821;59.134;37.894;2023-05-07T10:47:08;15.43;;;2.92;;
67516;SDS011;68821;59.134;37.894;2023-05-07T10:52:18;16.30;;;4.88;;
67516;SDS011;68821;59.134;37.894;2023-05-07T10:57:40;4.07;;;1.30;;
67516;SDS011;68821;59.134;37.894;2023-05-07T11:05:27;7.43;;;1.90;;
67516;SDS011;68821;59.134;37.894;2023-05-07T11:08:01;6.45;;;1.40;;
67516;SDS011;68821;59.134;37.894;2023-05-07T11:13:17;10.23;;;4.07;;
67516;SDS011;68821;59.134;37.894;2023-05-07T11:15:45;13.02;;;4.72;;
67516;SDS011;68821;59.134;37.894;2023-05-07T11:18:16;18.75;;;6.60;;
67516;SDS011;68821;59.134;37.894;2023-05-07T11:20:50;7.07;;;2.10;;
67516;SDS011;68821;59.134;37.894;2023-05-07T11:26:00;4.45;;;1.50;;
67516;SDS011;68821;59.134;37.894;2023-05-07T11:28:30;13.82;;;4.22;;
67516;SDS011;68821;59.134;37.894;2023-05-07T11:31:02;15.73;;;4.90;;
67516;SDS011;68821;59.134;37.894;2023-05-07T11:33:29;13.88;;;3.97;;
67516;SDS011;68821;59.134;37.894;2023-05-07T11:35:56;12.40;;;4.05;;
67516;SDS011;68821;59.134;37.894;2023-05-07T11:38:24;10.18;;;2.90;;
67516;SDS011;68821;59.134;37.894;2023-05-07T11:40:58;25.00;;;9.60;;
67516;SDS011;68821;59.134;37.894;2023-05-07T11:43:29;17.45;;;4.82;;
67516;SDS011;68821;59.134;37.894;2023-05-07T11:46:04;21.95;;;5.78;;
67516;SDS011;68821;59.134;37.894;2023-05-07T11:48:37;6.20;;;1.70;;
67516;SDS011;68821;59.134;37.894;2023-05-07T11:51:04;4.35;;;1.42;;
67516;SDS011;68821;59.134;37.894;2023-05-07T11:53:35;9.20;;;1.75;;
67516;SDS011;68821;59.134;37.894;2023-05-07T11:56:06;3.60;;;0.88;;
67516;SDS011;68821;59.134;37.894;2023-05-07T11:58:33;4.38;;;0.88;;
67516;SDS011;68821;59.134;37.894;2023-05-07T12:00:59;9.82;;;2.30;;
67516;SDS011;68821;59.134;37.894;2023-05-07T12:03:25;16.00;;;4.05;;
67516;SDS011;68821;59.134;37.894;2023-05-07T12:05:52;9.52;;;1.48;;
67516;SDS011;68821;59.134;37.894;2023-05-07T12:08:19;8.10;;;2.05;;
67516;SDS011;68821;59.134;37.894;2023-05-07T12:10:49;4.90;;;1.70;;
67516;SDS011;68821;59.134;37.894;2023-05-07T12:13:20;6.38;;;1.67;;
67516;SDS011;68821;59.134;37.894;2023-05-07T12:15:51;3.40;;;1.35;;
67516;SDS011;68821;59.134;37.894;2023-05-07T12:18:18;7.50;;;2.08;;
67516;SDS011;68821;59.134;37.894;2023-05-07T12:20:45;12.55;;;4.55;;
67516;SDS011;68821;59.134;37.894;2023-05-07T12:23:12;17.23;;;4.40;;
67516;SDS011;68821;59.134;37.894;2023-05-07T12:25:39;10.45;;;1.80;;
67516;SDS011;68821;59.134;37.894;2023-05-07T12:28:07;7.90;;;2.28;;
67516;SDS011;68821;59.134;37.894;2023-05-07T12:30:37;8.18;;;1.42;;
67516;SDS011;68821;59.134;37.894;2023-05-07T12:33:04;7.45;;;1.48;;
67516;SDS011;68821;59.134;37.894;2023-05-07T12:35:31;2.90;;;0.90;;
67516;SDS011;68821;59.134;37.894;2023-05-07T12:38:01;3.70;;;0.90;;
67516;SDS011;68821;59.134;37.894;2023-05-07T12:40:36;3.65;;;1.17;;
67516;SDS011;68821;59.134;37.894;2023-05-07T12:43:04;4.35;;;1.30;;
67516;SDS011;68821;59.134;37.894;2023-05-07T12:45:30;1.83;;;0.73;;
67516;SDS011;68821;59.134;37.894;2023-05-07T12:47:57;2.78;;;1.02;;
67516;SDS011;68821;59.134;37.894;2023-05-07T12:50:31;4.80;;;1.63;;
67516;SDS011;68821;59.134;37.894;2023-05-07T12:53:02;6.13;;;1.40;;
67516;SDS011;68821;59.134;37.894;2023-05-07T12:55:31;7.40;;;2.03;;
67516;SDS011;68821;59.134;37.894;2023-05-07T12:58:00;6.20;;;1.50;;
67516;SDS011;68821;59.134;37.894;2023-05-07T13:00:35;3.25;;;1.00;;
67516;SDS011;68821;59.134;37.894;2023-05-07T13:03:02;8.20;;;2.05;;
67516;SDS011;68821;59.134;37.894;2023-05-07T13:05:29;5.80;;;1.30;;
67516;SDS011;68821;59.134;37.894;2023-05-07T13:07:55;1.45;;;0.70;;
67516;SDS011;68821;59.134;37.894;2023-05-07T13:10:25;4.78;;;1.45;;
67516;SDS011;68821;59.134;37.894;2023-05-07T13:12:51;3.72;;;0.80;;
67516;SDS011;68821;59.134;37.894;2023-05-07T13:15:18;7.53;;;1.90;;
67516;SDS011;68821;59.134;37.894;2023-05-07T13:17:44;3.90;;;1.13;;
67516;SDS011;68821;59.134;37.894;2023-05-07T13:20:10;2.00;;;0.80;;
67516;SDS011;68821;59.134;37.894;2023-05-07T13:22:39;3.42;;;0.80;;
67516;SDS011;68821;59.134;37.894;2023-05-07T13:25:05;3.30;;;0.75;;
67516;SDS011;68821;59.134;37.894;2023-05-07T13:27:34;8.80;;;1.90;;
67516;SDS011;68821;59.134;37.894;2023-05-07T13:30:06;5.90;;;1.80;;
67516;SDS011;68821;59.134;37.894;2023-05-07T13:32:33;3.83;;;1.02;;
67516;SDS011;68821;59.134;37.894;2023-05-07T13:34:59;2.35;;;0.82;;
67516;SDS011;68821;59.134;37.894;2023-05-07T13:37:25;6.30;;;1.10;;
67516;SDS011;68821;59.134;37.894;2023-05-07T13:39:51;1.33;;;0.70;;
67516;SDS011;68821;59.134;37.894;2023-05-07T13:42:18;3.65;;;1.10;;
67516;SDS011;68821;59.134;37.894;2023-05-07T13:44:44;5.93;;;1.70;;
67516;SDS011;68821;59.134;37.894;2023-05-07T13:47:10;28.58;;;8.82;;
67516;SDS011;68821;59.134;37.894;2023-05-07T13:49:36;13.00;;;4.32;;
67516;SDS011;68821;59.134;37.894;2023-05-07T13:52:03;5.47;;;1.38;;
67516;SDS011;68821;59.134;37.894;2023-05-07T13:54:29;5.20;;;1.40;;
67516;SDS011;68821;59.134;37.894;2023-05-07T13:56:55;7.00;;;2.50;;
67516;SDS011;68821;59.134;37.894;2023-05-07T13:59:21;5.55;;;1.67;;
67516;SDS011;68821;59.134;37.894;2023-05-07T14:01:48;4.43;;;1.10;;
67516;SDS011;68821;59.134;37.894;2023-05-07T14:04:15;3.50;;;1.02;;
67516;SDS011;68821;59.134;37.894;2023-05-07T14:06:41;1.48;;;0.70;;
67516;SDS011;68821;59.134;37.894;2023-05-07T14:09:07;4.50;;;0.90;;
67516;SDS011;68821;59.134;37.894;2023-05-07T14:11:33;6.80;;;1.67;;
67516;SDS011;68821;59.134;37.894;2023-05-07T14:13:59;5.68;;;1.00;;
67516;SDS011;68821;59.134;37.894;2023-05-07T14:16:25;6.00;;;1.15;;
67516;SDS011;68821;59.134;37.894;2023-05-07T14:18:51;2.72;;;0.73;;
67516;SDS011;68821;59.134;37.894;2023-05-07T14:21:17;2.53;;;0.90;;
67516;SDS011;68821;59.134;37.894;2023-05-07T14:23:44;3.13;;;0.95;;
67516;SDS011;68821;59.134;37.894;2023-05-07T14:26:10;6.30;;;1.30;;
67516;SDS011;68821;59.134;37.894;2023-05-07T14:28:36;5.35;;;1.40;;
67516;SDS011;68821;59.134;37.894;2023-05-07T14:31:05;6.20;;;1.33;;
67516;SDS011;68821;59.134;37.894;2023-05-07T14:33:31;5.20;;;1.00;;
67516;SDS011;68821;59.134;37.894;2023-05-07T14:35:58;4.43;;;1.25;;
67516;SDS011;68821;59.134;37.894;2023-05-07T14:38:24;2.55;;;0.85;;
67516;SDS011;68821;59.134;37.894;2023-05-07T14:40:50;21.20;;;3.95;;
67516;SDS011;68821;59.134;37.894;2023-05-07T14:43:17;8.43;;;1.90;;
67516;SDS011;68821;59.134;37.894;2023-05-07T14:45:43;17.13;;;3.83;;
67516;SDS011;68821;59.134;37.894;2023-05-07T14:48:09;25.13;;;6.72;;
67516;SDS011;68821;59.134;37.894;2023-05-07T14:50:41;17.38;;;3.90;;
67516;SDS011;68821;59.134;37.894;2023-05-07T14:53:07;19.15;;;3.42;;